sensor_id;sensor_type;location;lat;lon;timestamp;pressure;altitude;pressure_sealevel;temperature;humidity
72975;BME280;61166;54.228;37.632;2023-07-13T00:00:05;98670.22;;;11.80;nan
72975;BME280;61166;54.228;37.632;2023-07-13T00:02:32;98669.06;;;11.87;nan
72975;BME280;61166;54.228;37.632;2023-07-13T00:04:58;98669.97;;;11.93;nan
72975;BME280;61166;54.228;37.632;2023-07-13T00:07:25;98667.78;;;12.02;nan
72975;BME280;61166;54.228;37.632;2023-07-13T00:09:52;98669.50;;;12.08;nan
72975;BME280;61166;54.228;37.632;2023-07-13T00:12:28;98666.97;;;12.13;nan
72975;BME280;61166;54.228;37.632;2023-07-13T00:15:00;98658.31;;;12.17;nan
72975;BME280;61166;54.228;37.632;2023-07-13T00:17:27;98653.63;;;12.19;nan
72975;BME280;61166;54.228;37.632;2023-07-13T00:19:56;98655.22;;;12.20;nan
72975;BME280;61166;54.228;37.632;2023-07-13T00:22:23;98651.78;;;12.20;nan
72975;BME280;61166;54.228;37.632;2023-07-13T00:24:50;98665.09;;;12.13;nan
72975;BME280;61166;54.228;37.632;2023-07-13T00:27:16;98660.31;;;12.10;nan
72975;BME280;61166;54.228;37.632;2023-07-13T00:29:43;98657.13;;;12.08;nan
72975;BME280;61166;54.228;37.632;2023-07-13T00:32:10;98658.63;;;12.04;nan
72975;BME280;61166;54.228;37.632;2023-07-13T00:34:38;98652.31;;;12.05;nan
72975;BME280;61166;54.228;37.632;2023-07-13T00:37:06;98655.41;;;12.02;nan
72975;BME280;61166;54.228;37.632;2023-07-13T00:39:33;98655.41;;;12.02;nan
72975;BME280;61166;54.228;37.632;2023-07-13T00:42:02;98658.03;;;12.02;nan
72975;BME280;61166;54.228;37.632;2023-07-13T00:44:29;98652.78;;;12.02;nan
72975;BME280;61166;54.228;37.632;2023-07-13T00:46:55;98655.41;;;12.02;nan
72975;BME280;61166;54.228;37.632;2023-07-13T00:49:24;98653.56;;;12.03;nan
72975;BME280;61166;54.228;37.632;2023-07-13T00:52:04;98661.25;;;12.04;nan
72975;BME280;61166;54.228;37.632;2023-07-13T00:54:43;98655.41;;;12.02;nan
72975;BME280;61166;54.228;37.632;2023-07-13T00:57:16;98660.91;;;12.01;nan
72975;BME280;61166;54.228;37.632;2023-07-13T00:59:47;98653.81;;;12.01;nan
72975;BME280;61166;54.228;37.632;2023-07-13T01:02:15;98652.78;;;12.02;nan
72975;BME280;61166;54.228;37.632;2023-07-13T01:04:41;98651.75;;;12.03;nan
72975;BME280;61166;54.228;37.632;2023-07-13T01:07:08;98656.22;;;12.03;nan
72975;BME280;61166;54.228;37.632;2023-07-13T01:09:35;98654.38;;;12.03;nan
72975;BME280;61166;54.228;37.632;2023-07-13T01:12:02;98658.63;;;12.04;nan
72975;BME280;61166;54.228;37.632;2023-07-13T01:14:29;98663.41;;;12.07;nan
72975;BME280;61166;54.228;37.632;2023-07-13T01:16:56;98647.03;;;12.05;nan
72975;BME280;61166;54.228;37.632;2023-07-13T01:19:37;98651.28;;;12.06;nan
72975;BME280;61166;54.228;37.632;2023-07-13T01:22:08;98649.56;;;12.00;nan
72975;BME280;61166;54.228;37.632;2023-07-13T01:24:36;98651.63;;;11.98;nan
72975;BME280;61166;54.228;37.632;2023-07-13T01:27:03;98651.63;;;11.98;nan
72975;BME280;61166;54.228;37.632;2023-07-13T01:29:32;98650.03;;;11.97;nan
72975;BME280;61166;54.228;37.632;2023-07-13T01:31:59;98652.78;;;12.02;nan
72975;BME280;61166;54.228;37.632;2023-07-13T01:34:27;98650.13;;;12.02;nan
72975;BME280;61166;54.228;37.632;2023-07-13T01:36:53;98654.16;;;12.05;nan
72975;BME280;61166;54.228;37.632;2023-07-13T01:39:21;98662.84;;;12.05;nan
72975;BME280;61166;54.228;37.632;2023-07-13T01:41:48;98657.59;;;12.05;nan
72975;BME280;61166;54.228;37.632;2023-07-13T01:44:15;98651.53;;;12.21;nan
72975;BME280;61166;54.228;37.632;2023-07-13T01:46:42;98644.34;;;12.17;nan
72975;BME280;61166;54.228;37.632;2023-07-13T01:49:08;98646.28;;;12.21;nan
72975;BME280;61166;54.228;37.632;2023-07-13T01:51:35;98647.41;;;12.26;nan
72975;BME280;61166;54.228;37.632;2023-07-13T01:54:01;98636.38;;;12.29;nan
72975;BME280;61166;54.228;37.632;2023-07-13T01:56:28;98640.06;;;12.28;nan
72975;BME280;61166;54.228;37.632;2023-07-13T01:58:54;98629.84;;;12.31;nan
72975;BME280;61166;54.228;37.632;2023-07-13T02:01:21;98626.19;;;12.32;nan
72975;BME280;61166;54.228;37.632;2023-07-13T02:03:47;98622.50;;;12.33;nan
72975;BME280;61166;54.228;37.632;2023-07-13T02:06:14;98617.56;;;12.37;nan
72975;BME280;61166;54.228;37.632;2023-07-13T02:08:41;98613.41;;;12.41;nan
72975;BME280;61166;54.228;37.632;2023-07-13T02:11:08;98615.00;;;12.42;nan
72975;BME280;61166;54.228;37.632;2023-07-13T02:13:35;98615.00;;;12.42;nan
72975;BME280;61166;54.228;37.632;2023-07-13T02:16:01;98615.34;;;12.45;nan
72975;BME280;61166;54.228;37.632;2023-07-13T02:18:28;98617.97;;;12.45;nan
72975;BME280;61166;54.228;37.632;2023-07-13T02:20:54;98611.66;;;12.46;nan
72975;BME280;61166;54.228;37.632;2023-07-13T02:23:21;98617.28;;;12.50;nan
72975;BME280;61166;54.228;37.632;2023-07-13T02:25:48;98616.31;;;12.56;nan
72975;BME280;61166;54.228;37.632;2023-07-13T02:28:15;98614.50;;;12.56;nan
72975;BME280;61166;54.228;37.632;2023-07-13T02:30:41;98611.06;;;12.56;nan
72975;BME280;61166;54.228;37.632;2023-07-13T02:33:08;98608.19;;;12.57;nan
72975;BME280;61166;54.228;37.632;2023-07-13T02:35:34;98613.91;;;12.54;nan
72975;BME280;61166;54.228;37.632;2023-07-13T02:38:01;98612.66;;;12.57;nan
72975;BME280;61166;54.228;37.632;2023-07-13T02:40:27;98611.13;;;12.61;nan
72975;BME280;61166;54.228;37.632;2023-07-13T02:42:54;98616.97;;;12.63;nan
72975;BME280;61166;54.228;37.632;2023-07-13T02:45:20;98622.34;;;12.68;nan
72975;BME280;61166;54.228;37.632;2023-07-13T02:47:47;98623.75;;;12.76;nan
72975;BME280;61166;54.228;37.632;2023-07-13T02:50:14;98618.81;;;12.79;nan
72975;BME280;61166;54.228;37.632;2023-07-13T02:52:40;98618.41;;;12.87;nan
72975;BME280;61166;54.228;37.632;2023-07-13T02:55:07;98622.88;;;12.87;nan
72975;BME280;61166;54.228;37.632;2023-07-13T02:57:35;98623.53;;;12.94;nan
72975;BME280;61166;54.228;37.632;2023-07-13T03:00:03;98624.09;;;12.96;nan
72975;BME280;61166;54.228;37.632;2023-07-13T03:02:31;98622.00;;;12.98;nan
72975;BME280;61166;54.228;37.632;2023-07-13T03:04:58;98628.09;;;12.99;nan
72975;BME280;61166;54.228;37.632;2023-07-13T03:07:26;98626.25;;;12.99;nan
72975;BME280;61166;54.228;37.632;2023-07-13T03:09:56;98633.38;;;12.99;nan
72975;BME280;61166;54.228;37.632;2023-07-13T03:12:23;98645.78;;;12.98;nan
72975;BME280;61166;54.228;37.632;2023-07-13T03:14:50;98643.38;;;12.97;nan
72975;BME280;61166;54.228;37.632;2023-07-13T03:17:17;98642.81;;;12.95;nan
72975;BME280;61166;54.228;37.632;2023-07-13T03:19:44;98647.63;;;12.98;nan
72975;BME280;61166;54.228;37.632;2023-07-13T03:22:10;98646.50;;;12.94;nan
72975;BME280;61166;54.228;37.632;2023-07-13T03:24:37;98652.31;;;12.96;nan
72975;BME280;61166;54.228;37.632;2023-07-13T03:27:06;98647.84;;;12.96;nan
72975;BME280;61166;54.228;37.632;2023-07-13T03:29:32;98644.97;;;12.98;nan
72975;BME280;61166;54.228;37.632;2023-07-13T03:31:59;98645.78;;;12.98;nan
72975;BME280;61166;54.228;37.632;2023-07-13T03:34:25;98637.28;;;12.96;nan
72975;BME280;61166;54.228;37.632;2023-07-13T03:36:55;98642.88;;;13.00;nan
72975;BME280;61166;54.228;37.632;2023-07-13T03:39:22;98652.88;;;12.98;nan
72975;BME280;61166;54.228;37.632;2023-07-13T03:41:49;98650.56;;;13.01;nan
72975;BME280;61166;54.228;37.632;2023-07-13T03:44:16;98659.84;;;13.04;nan
72975;BME280;61166;54.228;37.632;2023-07-13T03:46:44;98652.97;;;13.03;nan
72975;BME280;61166;54.228;37.632;2023-07-13T03:49:11;98658.25;;;13.03;nan
72975;BME280;61166;54.228;37.632;2023-07-13T03:51:38;98640.97;;;12.95;nan
72975;BME280;61166;54.228;37.632;2023-07-13T03:54:04;98623.22;;;12.90;nan
72975;BME280;61166;54.228;37.632;2023-07-13T03:56:31;98621.63;;;12.89;nan
72975;BME280;61166;54.228;37.632;2023-07-13T03:58:57;98626.00;;;12.84;nan
72975;BME280;61166;54.228;37.632;2023-07-13T04:01:24;98622.09;;;12.86;nan
72975;BME280;61166;54.228;37.632;2023-07-13T04:03:51;98604.72;;;12.90;nan
72975;BME280;61166;54.228;37.632;2023-07-13T04:06:22;98609.69;;;13.04;nan
72975;BME280;61166;54.228;37.632;2023-07-13T04:08:51;98607.44;;;13.12;nan
72975;BME280;61166;54.228;37.632;2023-07-13T04:11:20;98603.16;;;13.23;nan
72975;BME280;61166;54.228;37.632;2023-07-13T04:13:47;98609.66;;;13.37;nan
72975;BME280;61166;54.228;37.632;2023-07-13T04:16:15;98606.06;;;13.43;nan
72975;BME280;61166;54.228;37.632;2023-07-13T04:18:42;98607.56;;;13.56;nan
72975;BME280;61166;54.228;37.632;2023-07-13T04:21:09;98611.25;;;13.77;nan
72975;BME280;61166;54.228;37.632;2023-07-13T04:23:37;98618.38;;;13.98;nan
72975;BME280;61166;54.228;37.632;2023-07-13T04:26:04;98613.91;;;14.26;nan
72975;BME280;61166;54.228;37.632;2023-07-13T04:28:31;98608.84;;;14.46;nan
72975;BME280;61166;54.228;37.632;2023-07-13T04:30:57;98610.63;;;14.67;nan
72975;BME280;61166;54.228;37.632;2023-07-13T04:33:24;98621.47;;;14.98;nan
72975;BME280;61166;54.228;37.632;2023-07-13T04:35:52;98610.50;;;15.21;nan
72975;BME280;61166;54.228;37.632;2023-07-13T04:38:20;98618.84;;;15.40;nan
72975;BME280;61166;54.228;37.632;2023-07-13T04:40:47;98612.25;;;15.47;nan
72975;BME280;61166;54.228;37.632;2023-07-13T04:43:13;98610.59;;;15.36;nan
72975;BME280;61166;54.228;37.632;2023-07-13T04:45:41;98611.28;;;15.22;nan
72975;BME280;61166;54.228;37.632;2023-07-13T04:48:07;98600.91;;;15.15;nan
72975;BME280;61166;54.228;37.632;2023-07-13T04:50:36;98613.63;;;15.13;nan
72975;BME280;61166;54.228;37.632;2023-07-13T04:53:04;98610.22;;;15.17;nan
72975;BME280;61166;54.228;37.632;2023-07-13T04:55:31;98614.75;;;15.22;nan
72975;BME280;61166;54.228;37.632;2023-07-13T04:57:57;98624.56;;;15.27;nan
72975;BME280;61166;54.228;37.632;2023-07-13T05:00:25;98625.47;;;15.42;nan
72975;BME280;61166;54.228;37.632;2023-07-13T05:02:53;98622.94;;;15.63;nan
72975;BME280;61166;54.228;37.632;2023-07-13T05:05:20;98633.59;;;15.73;nan
72975;BME280;61166;54.228;37.632;2023-07-13T05:07:47;98625.16;;;15.81;nan
72975;BME280;61166;54.228;37.632;2023-07-13T05:10:14;98621.44;;;15.82;nan
72975;BME280;61166;54.228;37.632;2023-07-13T05:12:41;98630.50;;;15.86;nan
72975;BME280;61166;54.228;37.632;2023-07-13T05:15:10;98618.78;;;15.77;nan
72975;BME280;61166;54.228;37.632;2023-07-13T05:17:38;98625.66;;;15.73;nan
72975;BME280;61166;54.228;37.632;2023-07-13T05:20:06;98616.63;;;15.69;nan
72975;BME280;61166;54.228;37.632;2023-07-13T05:22:32;98634.59;;;15.57;nan
72975;BME280;61166;54.228;37.632;2023-07-13T05:24:59;98633.56;;;15.63;nan
72975;BME280;61166;54.228;37.632;2023-07-13T05:27:26;98627.50;;;15.72;nan
72975;BME280;61166;54.228;37.632;2023-07-13T05:29:52;98626.00;;;15.92;nan
72975;BME280;61166;54.228;37.632;2023-07-13T05:32:19;98617.34;;;16.16;nan
72975;BME280;61166;54.228;37.632;2023-07-13T05:34:45;98619.81;;;16.59;nan
72975;BME280;61166;54.228;37.632;2023-07-13T05:37:12;98619.03;;;16.94;nan
72975;BME280;61166;54.228;37.632;2023-07-13T05:39:38;98613.41;;;17.36;nan
72975;BME280;61166;54.228;37.632;2023-07-13T05:42:05;98620.44;;;17.91;nan
72975;BME280;61166;54.228;37.632;2023-07-13T05:44:32;98615.94;;;18.41;nan
72975;BME280;61166;54.228;37.632;2023-07-13T05:46:58;98608.56;;;18.67;nan
72975;BME280;61166;54.228;37.632;2023-07-13T05:49:25;98608.13;;;18.89;nan
72975;BME280;61166;54.228;37.632;2023-07-13T05:51:51;98610.50;;;18.95;nan
72975;BME280;61166;54.228;37.632;2023-07-13T05:54:18;98612.75;;;19.07;nan
72975;BME280;61166;54.228;37.632;2023-07-13T05:56:44;98603.72;;;19.61;nan
72975;BME280;61166;54.228;37.632;2023-07-13T05:59:12;98604.09;;;20.34;nan
72975;BME280;61166;54.228;37.632;2023-07-13T06:01:39;98597.22;;;21.45;nan
72975;BME280;61166;54.228;37.632;2023-07-13T06:04:06;98590.41;;;22.88;nan
72975;BME280;61166;54.228;37.632;2023-07-13T06:06:32;98589.34;;;24.59;nan
72975;BME280;61166;54.228;37.632;2023-07-13T06:09:00;98587.56;;;26.04;nan
72975;BME280;61166;54.228;37.632;2023-07-13T06:11:27;98585.03;;;27.15;nan
72975;BME280;61166;54.228;37.632;2023-07-13T06:13:54;98593.25;;;26.31;nan
72975;BME280;61166;54.228;37.632;2023-07-13T06:16:21;98600.75;;;25.29;nan
72975;BME280;61166;54.228;37.632;2023-07-13T06:18:48;98604.66;;;24.42;nan
72975;BME280;61166;54.228;37.632;2023-07-13T06:21:18;98593.41;;;24.14;nan
72975;BME280;61166;54.228;37.632;2023-07-13T06:23:47;98589.75;;;23.92;nan
72975;BME280;61166;54.228;37.632;2023-07-13T06:26:14;98585.31;;;23.88;nan
72975;BME280;61166;54.228;37.632;2023-07-13T06:28:41;98587.59;;;23.55;nan
72975;BME280;61166;54.228;37.632;2023-07-13T06:31:10;98584.63;;;22.94;nan
72975;BME280;61166;54.228;37.632;2023-07-13T06:33:37;98590.56;;;22.47;nan
72975;BME280;61166;54.228;37.632;2023-07-13T06:36:05;98595.03;;;22.01;nan
72975;BME280;61166;54.228;37.632;2023-07-13T06:38:32;98595.47;;;21.81;nan
72975;BME280;61166;54.228;37.632;2023-07-13T06:40:58;98597.53;;;21.84;nan
72975;BME280;61166;54.228;37.632;2023-07-13T06:43:25;98601.41;;;21.92;nan
72975;BME280;61166;54.228;37.632;2023-07-13T06:45:54;98605.78;;;21.74;nan
72975;BME280;61166;54.228;37.632;2023-07-13T06:48:21;98612.50;;;21.58;nan
72975;BME280;61166;54.228;37.632;2023-07-13T06:50:49;98608.03;;;21.39;nan
72975;BME280;61166;54.228;37.632;2023-07-13T06:53:17;98604.06;;;21.51;nan
72975;BME280;61166;54.228;37.632;2023-07-13T06:55:45;98608.31;;;22.06;nan
72975;BME280;61166;54.228;37.632;2023-07-13T06:58:12;98608.47;;;22.37;nan
72975;BME280;61166;54.228;37.632;2023-07-13T07:00:39;98606.31;;;22.84;nan
72975;BME280;61166;54.228;37.632;2023-07-13T07:03:06;98608.31;;;23.63;nan
72975;BME280;61166;54.228;37.632;2023-07-13T07:05:33;98615.88;;;23.69;nan
72975;BME280;61166;54.228;37.632;2023-07-13T07:08:00;98609.19;;;23.50;nan
72975;BME280;61166;54.228;37.632;2023-07-13T07:10:29;98610.72;;;23.11;nan
72975;BME280;61166;54.228;37.632;2023-07-13T07:12:56;98613.28;;;22.71;nan
72975;BME280;61166;54.228;37.632;2023-07-13T07:15:22;98614.88;;;22.72;nan
72975;BME280;61166;54.228;37.632;2023-07-13T07:17:49;98615.66;;;22.73;nan
72975;BME280;61166;54.228;37.632;2023-07-13T07:20:16;98604.34;;;22.76;nan
72975;BME280;61166;54.228;37.632;2023-07-13T07:22:43;98610.34;;;22.59;nan
72975;BME280;61166;54.228;37.632;2023-07-13T07:25:09;98610.66;;;22.58;nan
72975;BME280;61166;54.228;37.632;2023-07-13T07:27:36;98615.97;;;22.49;nan
72975;BME280;61166;54.228;37.632;2023-07-13T07:30:06;98618.53;;;22.04;nan
72975;BME280;61166;54.228;37.632;2023-07-13T07:32:35;98621.41;;;21.53;nan
72975;BME280;61166;54.228;37.632;2023-07-13T07:35:05;98621.69;;;21.24;nan
72975;BME280;61166;54.228;37.632;2023-07-13T07:37:35;98625.28;;;21.01;nan
72975;BME280;61166;54.228;37.632;2023-07-13T07:40:05;98622.75;;;20.58;nan
72975;BME280;61166;54.228;37.632;2023-07-13T07:42:35;98628.41;;;20.33;nan
72975;BME280;61166;54.228;37.632;2023-07-13T07:45:02;98626.03;;;20.13;nan
72975;BME280;61166;54.228;37.632;2023-07-13T07:47:29;98622.03;;;19.91;nan
72975;BME280;61166;54.228;37.632;2023-07-13T07:49:55;98632.75;;;19.86;nan
72975;BME280;61166;54.228;37.632;2023-07-13T07:52:22;98622.41;;;19.61;nan
72975;BME280;61166;54.228;37.632;2023-07-13T07:54:49;98624.13;;;19.46;nan
72975;BME280;61166;54.228;37.632;2023-07-13T07:57:18;98623.09;;;19.42;nan
72975;BME280;61166;54.228;37.632;2023-07-13T08:00:05;98629.31;;;19.33;nan
72975;BME280;61166;54.228;37.632;2023-07-13T08:02:35;98639.50;;;19.26;nan
72975;BME280;61166;54.228;37.632;2023-07-13T08:05:05;98645.41;;;19.23;nan
72975;BME280;61166;54.228;37.632;2023-07-13T08:07:35;98639.78;;;19.24;nan
72975;BME280;61166;54.228;37.632;2023-07-13T08:10:02;98638.13;;;19.33;nan
72975;BME280;61166;54.228;37.632;2023-07-13T08:12:28;98629.66;;;19.55;nan
72975;BME280;61166;54.228;37.632;2023-07-13T08:14:58;98633.00;;;19.66;nan
72975;BME280;61166;54.228;37.632;2023-07-13T08:17:24;98641.97;;;19.75;nan
72975;BME280;61166;54.228;37.632;2023-07-13T08:19:51;98646.78;;;19.97;nan
72975;BME280;61166;54.228;37.632;2023-07-13T08:22:18;98635.53;;;20.00;nan
72975;BME280;61166;54.228;37.632;2023-07-13T08:24:45;98631.56;;;19.97;nan
72975;BME280;61166;54.228;37.632;2023-07-13T08:27:11;98634.97;;;19.79;nan
72975;BME280;61166;54.228;37.632;2023-07-13T08:29:39;98632.94;;;19.71;nan
72975;BME280;61166;54.228;37.632;2023-07-13T08:32:06;98618.66;;;19.62;nan
72975;BME280;61166;54.228;37.632;2023-07-13T08:34:33;98621.38;;;19.57;nan
72975;BME280;61166;54.228;37.632;2023-07-13T08:37:00;98627.63;;;19.42;nan
72975;BME280;61166;54.228;37.632;2023-07-13T08:39:26;98627.03;;;19.21;nan
72975;BME280;61166;54.228;37.632;2023-07-13T08:42:26;98618.59;;;19.09;nan
72975;BME280;61166;54.228;37.632;2023-07-13T08:45:08;98626.50;;;18.90;nan
72975;BME280;61166;54.228;37.632;2023-07-13T08:47:43;98635.34;;;18.86;nan
72975;BME280;61166;54.228;37.632;2023-07-13T08:50:14;98631.91;;;18.80;nan
72975;BME280;61166;54.228;37.632;2023-07-13T08:52:42;98639.16;;;18.74;nan
72975;BME280;61166;54.228;37.632;2023-07-13T08:55:26;98633.31;;;18.72;nan
72975;BME280;61166;54.228;37.632;2023-07-13T08:58:00;98641.25;;;18.77;nan
72975;BME280;61166;54.228;37.632;2023-07-13T09:00:37;98634.72;;;18.99;nan
72975;BME280;61166;54.228;37.632;2023-07-13T09:03:15;98617.16;;;19.22;nan
72975;BME280;61166;54.228;37.632;2023-07-13T09:05:48;98613.38;;;19.57;nan
72975;BME280;61166;54.228;37.632;2023-07-13T09:14:43;98623.13;;;19.90;nan
72975;BME280;61166;54.228;37.632;2023-07-13T09:17:19;98621.56;;;20.27;nan
72975;BME280;61166;54.228;37.632;2023-07-13T09:19:54;98623.25;;;20.79;nan
72975;BME280;61166;54.228;37.632;2023-07-13T09:22:24;98620.63;;;21.06;nan
72975;BME280;61166;54.228;37.632;2023-07-13T09:25:05;98617.44;;;21.51;nan
72975;BME280;61166;54.228;37.632;2023-07-13T09:27:39;98619.25;;;21.83;nan
72975;BME280;61166;54.228;37.632;2023-07-13T09:32:41;98623.09;;;22.18;nan
72975;BME280;61166;54.228;37.632;2023-07-13T09:35:16;98614.66;;;22.24;nan
72975;BME280;61166;54.228;37.632;2023-07-13T09:37:45;98622.28;;;22.31;nan
72975;BME280;61166;54.228;37.632;2023-07-13T09:40:40;98619.97;;;22.38;nan
72975;BME280;61166;54.228;37.632;2023-07-13T09:43:14;98608.91;;;22.76;nan
72975;BME280;61166;54.228;37.632;2023-07-13T09:45:45;98607.84;;;22.99;nan
72975;BME280;61166;54.228;37.632;2023-07-13T09:48:13;98608.94;;;23.68;nan
72975;BME280;61166;54.228;37.632;2023-07-13T09:50:41;98611.78;;;24.46;nan
72975;BME280;61166;54.228;37.632;2023-07-13T09:53:15;98607.63;;;24.92;nan
72975;BME280;61166;54.228;37.632;2023-07-13T09:55:47;98610.88;;;25.32;nan
72975;BME280;61166;54.228;37.632;2023-07-13T09:58:24;98608.03;;;25.28;nan
72975;BME280;61166;54.228;37.632;2023-07-13T10:01:00;98603.97;;;25.14;nan
72975;BME280;61166;54.228;37.632;2023-07-13T10:03:30;98592.25;;;25.18;nan
72975;BME280;61166;54.228;37.632;2023-07-13T10:06:09;98591.63;;;25.51;nan
72975;BME280;61166;54.228;37.632;2023-07-13T10:08:38;98568.50;;;25.88;nan
72975;BME280;61166;54.228;37.632;2023-07-13T10:11:17;98572.31;;;25.87;nan
72975;BME280;61166;54.228;37.632;2023-07-13T10:13:57;98574.50;;;25.93;nan
72975;BME280;61166;54.228;37.632;2023-07-13T10:16:26;98555.63;;;25.64;nan
72975;BME280;61166;54.228;37.632;2023-07-13T10:18:59;98562.56;;;25.74;nan
72975;BME280;61166;54.228;37.632;2023-07-13T10:21:32;98565.00;;;25.58;nan
72975;BME280;61166;54.228;37.632;2023-07-13T10:24:17;98557.69;;;25.58;nan
72975;BME280;61166;54.228;37.632;2023-07-13T10:26:49;98563.31;;;25.83;nan
72975;BME280;61166;54.228;37.632;2023-07-13T10:29:20;98563.44;;;25.86;nan
72975;BME280;61166;54.228;37.632;2023-07-13T10:31:48;98556.44;;;25.56;nan
72975;BME280;61166;54.228;37.632;2023-07-13T10:34:15;98557.75;;;25.50;nan
72975;BME280;61166;54.228;37.632;2023-07-13T10:36:44;98561.41;;;25.45;nan
72975;BME280;61166;54.228;37.632;2023-07-13T10:41:44;98552.63;;;25.57;nan
72975;BME280;61166;54.228;37.632;2023-07-13T10:44:21;98548.16;;;25.40;nan
72975;BME280;61166;54.228;37.632;2023-07-13T10:46:48;98550.78;;;25.49;nan
72975;BME280;61166;54.228;37.632;2023-07-13T10:49:17;98552.44;;;25.62;nan
72975;BME280;61166;54.228;37.632;2023-07-13T10:51:45;98559.78;;;25.53;nan
72975;BME280;61166;54.228;37.632;2023-07-13T10:54:26;98558.97;;;25.23;nan
72975;BME280;61166;54.228;37.632;2023-07-13T10:59:35;98574.41;;;25.81;nan
72975;BME280;61166;54.228;37.632;2023-07-13T11:04:31;98567.56;;;25.46;nan
72975;BME280;61166;54.228;37.632;2023-07-13T11:07:20;98573.22;;;25.23;nan
72975;BME280;61166;54.228;37.632;2023-07-13T11:09:50;98568.19;;;25.13;nan
72975;BME280;61166;54.228;37.632;2023-07-13T11:17:49;98571.59;;;24.76;nan
72975;BME280;61166;54.228;37.632;2023-07-13T11:23:07;98568.38;;;24.91;nan
72975;BME280;61166;54.228;37.632;2023-07-13T11:25:36;98559.06;;;24.97;nan
72975;BME280;61166;54.228;37.632;2023-07-13T11:33:23;98551.84;;;24.46;nan
72975;BME280;61166;54.228;37.632;2023-07-13T11:41:01;98556.44;;;24.11;nan
72975;BME280;61166;54.228;37.632;2023-07-13T11:43:29;98556.09;;;23.95;nan
72975;BME280;61166;54.228;37.632;2023-07-13T11:45:55;98548.56;;;23.49;nan
72975;BME280;61166;54.228;37.632;2023-07-13T11:48:31;98554.38;;;23.42;nan
72975;BME280;61166;54.228;37.632;2023-07-13T11:51:05;98550.91;;;23.42;nan
72975;BME280;61166;54.228;37.632;2023-07-13T11:53:39;98555.59;;;23.36;nan
72975;BME280;61166;54.228;37.632;2023-07-13T11:56:07;98548.28;;;23.19;nan
72975;BME280;61166;54.228;37.632;2023-07-13T11:58:34;98552.97;;;23.05;nan
72975;BME280;61166;54.228;37.632;2023-07-13T12:01:02;98549.69;;;22.86;nan
72975;BME280;61166;54.228;37.632;2023-07-13T12:03:29;98560.16;;;22.73;nan
72975;BME280;61166;54.228;37.632;2023-07-13T12:06:04;98553.59;;;22.57;nan
72975;BME280;61166;54.228;37.632;2023-07-13T12:08:38;98558.22;;;22.43;nan
72975;BME280;61166;54.228;37.632;2023-07-13T12:11:17;98558.41;;;22.47;nan
72975;BME280;61166;54.228;37.632;2023-07-13T12:13:46;98555.84;;;22.42;nan
72975;BME280;61166;54.228;37.632;2023-07-13T12:16:27;98559.56;;;22.32;nan
72975;BME280;61166;54.228;37.632;2023-07-13T12:18:55;98556.88;;;22.32;nan
72975;BME280;61166;54.228;37.632;2023-07-13T12:21:31;98546.03;;;22.37;nan
72975;BME280;61166;54.228;37.632;2023-07-13T12:23:58;98552.16;;;22.51;nan
72975;BME280;61166;54.228;37.632;2023-07-13T12:26:25;98543.66;;;22.80;nan
72975;BME280;61166;54.228;37.632;2023-07-13T12:28:54;98544.91;;;23.05;nan
72975;BME280;61166;54.228;37.632;2023-07-13T12:31:30;98539.22;;;23.46;nan
72975;BME280;61166;54.228;37.632;2023-07-13T12:34:24;98531.44;;;23.67;nan
72975;BME280;61166;54.228;37.632;2023-07-13T12:36:51;98536.19;;;23.87;nan
72975;BME280;61166;54.228;37.632;2023-07-13T12:39:34;98525.56;;;23.65;nan
72975;BME280;61166;54.228;37.632;2023-07-13T12:42:30;98524.69;;;23.38;nan
72975;BME280;61166;54.228;37.632;2023-07-13T12:45:03;98520.69;;;23.27;nan
72975;BME280;61166;54.228;37.632;2023-07-13T12:47:40;98521.09;;;23.12;nan
72975;BME280;61166;54.228;37.632;2023-07-13T12:50:19;98509.63;;;22.81;nan
72975;BME280;61166;54.228;37.632;2023-07-13T12:52:54;98508.25;;;22.69;nan
72975;BME280;61166;54.228;37.632;2023-07-13T12:55:22;98505.88;;;22.68;nan
72975;BME280;61166;54.228;37.632;2023-07-13T12:57:54;98495.94;;;22.68;nan
72975;BME280;61166;54.228;37.632;2023-07-13T13:00:32;98492.28;;;22.87;nan
72975;BME280;61166;54.228;37.632;2023-07-13T13:08:35;98486.09;;;23.17;nan
72975;BME280;61166;54.228;37.632;2023-07-13T13:11:02;98488.31;;;23.24;nan
72975;BME280;61166;54.228;37.632;2023-07-13T13:13:29;98483.72;;;23.16;nan
72975;BME280;61166;54.228;37.632;2023-07-13T13:15:56;98483.53;;;23.12;nan
72975;BME280;61166;54.228;37.632;2023-07-13T13:18:27;98469.63;;;22.93;nan
72975;BME280;61166;54.228;37.632;2023-07-13T13:20:55;98474.63;;;22.86;nan
72975;BME280;61166;54.228;37.632;2023-07-13T13:23:22;98471.09;;;22.77;nan
72975;BME280;61166;54.228;37.632;2023-07-13T13:25:50;98474.16;;;22.61;nan
72975;BME280;61166;54.228;37.632;2023-07-13T13:28:18;98466.84;;;22.53;nan
72975;BME280;61166;54.228;37.632;2023-07-13T13:30:48;98467.25;;;22.16;nan
72975;BME280;61166;54.228;37.632;2023-07-13T13:33:16;98471.22;;;22.18;nan
72975;BME280;61166;54.228;37.632;2023-07-13T13:35:43;98462.13;;;22.05;nan
72975;BME280;61166;54.228;37.632;2023-07-13T13:38:12;98457.38;;;22.02;nan
72975;BME280;61166;54.228;37.632;2023-07-13T13:40:41;98451.88;;;21.85;nan
72975;BME280;61166;54.228;37.632;2023-07-13T13:43:17;98450.91;;;21.81;nan
72975;BME280;61166;54.228;37.632;2023-07-13T13:45:45;98448.13;;;21.86;nan
72975;BME280;61166;54.228;37.632;2023-07-13T13:48:20;98442.66;;;21.91;nan
72975;BME280;61166;54.228;37.632;2023-07-13T13:50:48;98438.91;;;22.01;nan
72975;BME280;61166;54.228;37.632;2023-07-13T13:53:15;98430.25;;;22.18;nan
72975;BME280;61166;54.228;37.632;2023-07-13T13:55:41;98431.75;;;22.32;nan
72975;BME280;61166;54.228;37.632;2023-07-13T13:58:09;98435.59;;;22.40;nan
72975;BME280;61166;54.228;37.632;2023-07-13T14:00:38;98422.69;;;22.42;nan